sensor_id;sensor_type;location;lat;lon;timestamp;P1;durP1;ratioP1;P2;durP2;ratioP2
62509;SDS011;48558;48.242;11.654;2022-10-17T00:01:57;9.45;;;2.40;;
62509;SDS011;48558;48.242;11.654;2022-10-17T00:06:10;3.00;;;2.17;;
62509;SDS011;48558;48.242;11.654;2022-10-17T00:10:24;2.08;;;1.85;;
62509;SDS011;48558;48.242;11.654;2022-10-17T00:14:37;4.78;;;2.15;;
62509;SDS011;48558;48.242;11.654;2022-10-17T00:18:50;5.50;;;1.92;;
62509;SDS011;48558;48.242;11.654;2022-10-17T00:23:03;2.83;;;2.08;;
62509;SDS011;48558;48.242;11.654;2022-10-17T00:27:15;2.28;;;1.92;;
62509;SDS011;48558;48.242;11.654;2022-10-17T00:31:28;3.83;;;2.15;;
62509;SDS011;48558;48.242;11.654;2022-10-17T00:35:40;3.03;;;2.33;;
62509;SDS011;48558;48.242;11.654;2022-10-17T00:39:52;2.78;;;2.17;;
62509;SDS011;48558;48.242;11.654;2022-10-17T00:44:06;6.60;;;2.28;;
62509;SDS011;48558;48.242;11.654;2022-10-17T00:48:38;4.63;;;2.38;;
62509;SDS011;48558;48.242;11.654;2022-10-17T00:52:50;2.20;;;1.95;;
62509;SDS011;48558;48.242;11.654;2022-10-17T00:57:03;3.65;;;2.22;;
62509;SDS011;48558;48.242;11.654;2022-10-17T01:01:16;3.88;;;2.15;;
62509;SDS011;48558;48.242;11.654;2022-10-17T01:05:29;1.67;;;1.58;;
62509;SDS011;48558;48.242;11.654;2022-10-17T01:09:41;6.78;;;2.17;;
62509;SDS011;48558;48.242;11.654;2022-10-17T01:14:08;2.20;;;2.05;;
62509;SDS011;48558;48.242;11.654;2022-10-17T01:22:54;2.20;;;2.00;;
62509;SDS011;48558;48.242;11.654;2022-10-17T01:27:28;3.90;;;1.85;;
62509;SDS011;48558;48.242;11.654;2022-10-17T01:36:48;2.03;;;1.90;;
62509;SDS011;48558;48.242;11.654;2022-10-17T01:45:42;2.08;;;1.98;;
62509;SDS011;48558;48.242;11.654;2022-10-17T01:50:03;2.30;;;2.10;;
62509;SDS011;48558;48.242;11.654;2022-10-17T01:54:26;3.22;;;2.38;;
62509;SDS011;48558;48.242;11.654;2022-10-17T01:59:21;5.18;;;3.10;;
62509;SDS011;48558;48.242;11.654;2022-10-17T02:03:37;2.40;;;2.10;;
62509;SDS011;48558;48.242;11.654;2022-10-17T02:07:52;2.60;;;2.40;;
62509;SDS011;48558;48.242;11.654;2022-10-17T02:16:42;2.83;;;2.15;;
62509;SDS011;48558;48.242;11.654;2022-10-17T02:21:07;2.50;;;2.30;;
62509;SDS011;48558;48.242;11.654;2022-10-17T02:25:44;1.98;;;1.73;;
62509;SDS011;48558;48.242;11.654;2022-10-17T02:34:25;1.90;;;1.80;;
62509;SDS011;48558;48.242;11.654;2022-10-17T02:38:41;1.85;;;1.73;;
62509;SDS011;48558;48.242;11.654;2022-10-17T02:42:57;1.52;;;1.42;;
62509;SDS011;48558;48.242;11.654;2022-10-17T02:52:04;1.77;;;1.67;;
62509;SDS011;48558;48.242;11.654;2022-10-17T02:56:23;2.28;;;1.90;;
62509;SDS011;48558;48.242;11.654;2022-10-17T03:00:37;1.65;;;1.55;;
62509;SDS011;48558;48.242;11.654;2022-10-17T03:04:51;4.80;;;1.77;;
62509;SDS011;48558;48.242;11.654;2022-10-17T03:09:04;2.08;;;1.92;;
62509;SDS011;48558;48.242;11.654;2022-10-17T03:13:16;1.45;;;1.35;;
62509;SDS011;48558;48.242;11.654;2022-10-17T03:17:30;4.53;;;1.77;;
62509;SDS011;48558;48.242;11.654;2022-10-17T03:21:42;4.43;;;2.05;;
62509;SDS011;48558;48.242;11.654;2022-10-17T03:25:55;4.63;;;1.65;;
62509;SDS011;48558;48.242;11.654;2022-10-17T03:30:07;4.05;;;1.67;;
62509;SDS011;48558;48.242;11.654;2022-10-17T03:34:20;2.03;;;1.88;;
62509;SDS011;48558;48.242;11.654;2022-10-17T03:38:33;1.58;;;1.48;;
62509;SDS011;48558;48.242;11.654;2022-10-17T03:42:45;2.22;;;2.03;;
62509;SDS011;48558;48.242;11.654;2022-10-17T03:46:58;1.55;;;1.45;;
62509;SDS011;48558;48.242;11.654;2022-10-17T03:51:10;2.38;;;1.60;;
62509;SDS011;48558;48.242;11.654;2022-10-17T03:55:23;2.10;;;1.90;;
62509;SDS011;48558;48.242;11.654;2022-10-17T03:59:35;4.85;;;1.80;;
62509;SDS011;48558;48.242;11.654;2022-10-17T04:03:49;1.70;;;1.60;;
62509;SDS011;48558;48.242;11.654;2022-10-17T04:08:03;1.77;;;1.67;;
62509;SDS011;48558;48.242;11.654;2022-10-17T04:12:15;1.70;;;1.60;;
62509;SDS011;48558;48.242;11.654;2022-10-17T04:16:27;1.60;;;1.50;;
62509;SDS011;48558;48.242;11.654;2022-10-17T04:20:40;2.83;;;1.55;;
62509;SDS011;48558;48.242;11.654;2022-10-17T04:24:52;7.55;;;1.70;;
62509;SDS011;48558;48.242;11.654;2022-10-17T04:29:04;3.40;;;1.85;;
62509;SDS011;48558;48.242;11.654;2022-10-17T04:33:17;1.60;;;1.50;;
62509;SDS011;48558;48.242;11.654;2022-10-17T04:37:29;1.67;;;1.58;;
62509;SDS011;48558;48.242;11.654;2022-10-17T04:41:42;8.55;;;1.88;;
62509;SDS011;48558;48.242;11.654;2022-10-17T04:45:55;2.20;;;2.00;;
62509;SDS011;48558;48.242;11.654;2022-10-17T04:50:12;3.70;;;1.70;;
62509;SDS011;48558;48.242;11.654;2022-10-17T04:54:24;3.80;;;1.90;;
62509;SDS011;48558;48.242;11.654;2022-10-17T04:58:37;1.80;;;1.63;;
62509;SDS011;48558;48.242;11.654;2022-10-17T05:02:50;2.28;;;2.05;;
62509;SDS011;48558;48.242;11.654;2022-10-17T05:07:03;1.70;;;1.60;;
62509;SDS011;48558;48.242;11.654;2022-10-17T05:11:16;4.25;;;2.20;;
62509;SDS011;48558;48.242;11.654;2022-10-17T05:15:35;3.80;;;1.65;;
62509;SDS011;48558;48.242;11.654;2022-10-17T05:19:48;1.67;;;1.58;;
62509;SDS011;48558;48.242;11.654;2022-10-17T05:24:03;2.00;;;1.90;;
62509;SDS011;48558;48.242;11.654;2022-10-17T05:28:20;1.60;;;1.50;;
62509;SDS011;48558;48.242;11.654;2022-10-17T05:32:32;1.52;;;1.40;;
62509;SDS011;48558;48.242;11.654;2022-10-17T05:36:45;1.50;;;1.40;;
62509;SDS011;48558;48.242;11.654;2022-10-17T05:41:04;1.67;;;1.38;;
62509;SDS011;48558;48.242;11.654;2022-10-17T05:45:17;1.33;;;1.33;;
62509;SDS011;48558;48.242;11.654;2022-10-17T05:49:29;2.50;;;1.40;;
62509;SDS011;48558;48.242;11.654;2022-10-17T05:53:56;1.48;;;1.27;;
62509;SDS011;48558;48.242;11.654;2022-10-17T05:58:08;1.40;;;1.33;;
62509;SDS011;48558;48.242;11.654;2022-10-17T06:02:32;1.25;;;1.13;;
62509;SDS011;48558;48.242;11.654;2022-10-17T06:06:45;2.47;;;1.42;;
62509;SDS011;48558;48.242;11.654;2022-10-17T06:10:57;1.85;;;1.65;;
62509;SDS011;48558;48.242;11.654;2022-10-17T06:15:10;2.92;;;1.70;;
62509;SDS011;48558;48.242;11.654;2022-10-17T06:19:23;1.52;;;1.42;;
62509;SDS011;48558;48.242;11.654;2022-10-17T06:23:36;1.42;;;1.33;;
62509;SDS011;48558;48.242;11.654;2022-10-17T06:27:53;1.90;;;1.70;;
62509;SDS011;48558;48.242;11.654;2022-10-17T06:32:06;2.03;;;1.60;;
62509;SDS011;48558;48.242;11.654;2022-10-17T06:36:24;8.23;;;2.20;;
62509;SDS011;48558;48.242;11.654;2022-10-17T06:40:37;2.28;;;1.50;;
62509;SDS011;48558;48.242;11.654;2022-10-17T06:44:50;3.53;;;1.60;;
62509;SDS011;48558;48.242;11.654;2022-10-17T06:49:03;2.55;;;1.42;;
62509;SDS011;48558;48.242;11.654;2022-10-17T06:53:17;1.55;;;1.45;;
62509;SDS011;48558;48.242;11.654;2022-10-17T06:57:29;4.10;;;1.40;;
62509;SDS011;48558;48.242;11.654;2022-10-17T07:01:42;1.50;;;1.42;;
62509;SDS011;48558;48.242;11.654;2022-10-17T07:05:57;5.03;;;1.65;;
62509;SDS011;48558;48.242;11.654;2022-10-17T07:10:10;1.90;;;1.65;;
62509;SDS011;48558;48.242;11.654;2022-10-17T07:14:23;2.08;;;1.65;;
62509;SDS011;48558;48.242;11.654;2022-10-17T07:18:42;1.98;;;1.70;;
62509;SDS011;48558;48.242;11.654;2022-10-17T07:22:55;4.22;;;1.80;;
62509;SDS011;48558;48.242;11.654;2022-10-17T07:27:08;4.80;;;2.00;;
62509;SDS011;48558;48.242;11.654;2022-10-17T07:31:21;2.00;;;1.85;;
62509;SDS011;48558;48.242;11.654;2022-10-17T07:35:36;4.57;;;1.92;;
62509;SDS011;48558;48.242;11.654;2022-10-17T07:39:52;3.47;;;2.17;;
62509;SDS011;48558;48.242;11.654;2022-10-17T07:44:04;2.10;;;1.90;;
62509;SDS011;48558;48.242;11.654;2022-10-17T07:48:16;3.33;;;2.80;;
62509;SDS011;48558;48.242;11.654;2022-10-17T07:52:30;5.10;;;2.25;;
62509;SDS011;48558;48.242;11.654;2022-10-17T07:56:43;3.13;;;2.38;;
62509;SDS011;48558;48.242;11.654;2022-10-17T08:01:02;5.03;;;2.40;;
62509;SDS011;48558;48.242;11.654;2022-10-17T08:05:18;2.17;;;1.98;;
62509;SDS011;48558;48.242;11.654;2022-10-17T08:09:30;4.07;;;1.92;;
62509;SDS011;48558;48.242;11.654;2022-10-17T08:13:43;2.35;;;2.15;;
62509;SDS011;48558;48.242;11.654;2022-10-17T08:17:55;2.85;;;2.30;;
62509;SDS011;48558;48.242;11.654;2022-10-17T08:22:07;2.45;;;2.17;;
62509;SDS011;48558;48.242;11.654;2022-10-17T08:26:20;5.88;;;2.30;;
62509;SDS011;48558;48.242;11.654;2022-10-17T08:30:32;2.80;;;1.90;;
62509;SDS011;48558;48.242;11.654;2022-10-17T08:34:45;2.30;;;2.10;;
62509;SDS011;48558;48.242;11.654;2022-10-17T08:38:57;2.58;;;2.20;;
62509;SDS011;48558;48.242;11.654;2022-10-17T08:43:23;5.05;;;2.40;;
62509;SDS011;48558;48.242;11.654;2022-10-17T08:47:53;4.28;;;2.33;;
62509;SDS011;48558;48.242;11.654;2022-10-17T08:52:30;3.95;;;2.47;;
62509;SDS011;48558;48.242;11.654;2022-10-17T08:56:51;10.30;;;2.72;;
62509;SDS011;48558;48.242;11.654;2022-10-17T09:05:56;3.20;;;2.72;;
62509;SDS011;48558;48.242;11.654;2022-10-17T09:10:54;3.72;;;2.85;;
62509;SDS011;48558;48.242;11.654;2022-10-17T09:19:35;2.70;;;2.45;;
62509;SDS011;48558;48.242;11.654;2022-10-17T09:23:51;3.78;;;2.75;;
62509;SDS011;48558;48.242;11.654;2022-10-17T09:28:36;2.13;;;1.80;;
62509;SDS011;48558;48.242;11.654;2022-10-17T09:32:50;1.83;;;1.73;;
62509;SDS011;48558;48.242;11.654;2022-10-17T09:37:04;2.00;;;1.80;;
62509;SDS011;48558;48.242;11.654;2022-10-17T09:50:26;1.70;;;1.60;;
62509;SDS011;48558;48.242;11.654;2022-10-17T09:54:40;2.60;;;1.80;;
62509;SDS011;48558;48.242;11.654;2022-10-17T09:58:58;2.58;;;1.55;;
62509;SDS011;48558;48.242;11.654;2022-10-17T10:07:34;1.85;;;1.75;;
62509;SDS011;48558;48.242;11.654;2022-10-17T10:11:53;2.85;;;1.63;;
62509;SDS011;48558;48.242;11.654;2022-10-17T10:16:21;3.15;;;1.83;;
62509;SDS011;48558;48.242;11.654;2022-10-17T10:40:03;2.03;;;1.88;;
62509;SDS011;48558;48.242;11.654;2022-10-17T10:44:19;2.22;;;1.40;;
62509;SDS011;48558;48.242;11.654;2022-10-17T10:48:36;1.63;;;1.53;;
62509;SDS011;48558;48.242;11.654;2022-10-17T10:57:45;1.60;;;1.50;;
62509;SDS011;48558;48.242;11.654;2022-10-17T11:06:51;1.60;;;1.50;;
62509;SDS011;48558;48.242;11.654;2022-10-17T11:11:59;1.98;;;1.30;;
62509;SDS011;48558;48.242;11.654;2022-10-17T11:29:47;5.18;;;1.50;;
62509;SDS011;48558;48.242;11.654;2022-10-17T11:34:05;5.65;;;1.60;;
62509;SDS011;48558;48.242;11.654;2022-10-17T11:38:34;3.22;;;1.60;;
62509;SDS011;48558;48.242;11.654;2022-10-17T11:42:58;2.40;;;1.52;;
62509;SDS011;48558;48.242;11.654;2022-10-17T11:47:43;3.80;;;1.50;;
62509;SDS011;48558;48.242;11.654;2022-10-17T11:52:12;1.52;;;1.42;;
62509;SDS011;48558;48.242;11.654;2022-10-17T12:10:26;1.50;;;1.40;;
62509;SDS011;48558;48.242;11.654;2022-10-17T12:14:44;1.88;;;1.15;;
62509;SDS011;48558;48.242;11.654;2022-10-17T12:27:35;1.25;;;1.15;;
62509;SDS011;48558;48.242;11.654;2022-10-17T12:31:50;1.45;;;1.35;;
62509;SDS011;48558;48.242;11.654;2022-10-17T12:44:45;3.22;;;1.73;;
62509;SDS011;48558;48.242;11.654;2022-10-17T12:49:02;2.55;;;1.50;;
62509;SDS011;48558;48.242;11.654;2022-10-17T12:53:15;2.05;;;1.40;;
62509;SDS011;48558;48.242;11.654;2022-10-17T13:01:50;1.67;;;1.58;;
62509;SDS011;48558;48.242;11.654;2022-10-17T13:06:06;1.40;;;1.30;;
62509;SDS011;48558;48.242;11.654;2022-10-17T13:10:26;6.68;;;1.50;;
62509;SDS011;48558;48.242;11.654;2022-10-17T13:14:41;3.58;;;1.45;;
62509;SDS011;48558;48.242;11.654;2022-10-17T13:18:54;1.58;;;1.25;;
62509;SDS011;48558;48.242;11.654;2022-10-17T13:23:20;4.13;;;1.75;;
62509;SDS011;48558;48.242;11.654;2022-10-17T13:27:34;2.80;;;1.33;;
62509;SDS011;48558;48.242;11.654;2022-10-17T13:31:52;1.23;;;1.23;;
62509;SDS011;48558;48.242;11.654;2022-10-17T13:36:11;1.15;;;1.15;;
62509;SDS011;48558;48.242;11.654;2022-10-17T13:40:27;1.67;;;1.30;;
62509;SDS011;48558;48.242;11.654;2022-10-17T13:45:00;1.52;;;1.42;;
62509;SDS011;48558;48.242;11.654;2022-10-17T13:49:18;3.90;;;1.50;;
62509;SDS011;48558;48.242;11.654;2022-10-17T13:53:39;2.70;;;1.60;;
62509;SDS011;48558;48.242;11.654;2022-10-17T13:57:54;1.30;;;1.20;;
62509;SDS011;48558;48.242;11.654;2022-10-17T14:02:24;1.65;;;1.30;;
62509;SDS011;48558;48.242;11.654;2022-10-17T14:06:42;1.58;;;1.48;;
62509;SDS011;48558;48.242;11.654;2022-10-17T14:11:01;3.63;;;1.50;;
62509;SDS011;48558;48.242;11.654;2022-10-17T14:15:14;1.83;;;1.33;;
62509;SDS011;48558;48.242;11.654;2022-10-17T14:19:31;1.42;;;1.33;;
62509;SDS011;48558;48.242;11.654;2022-10-17T14:23:47;1.70;;;1.30;;
62509;SDS011;48558;48.242;11.654;2022-10-17T14:32:20;1.65;;;1.38;;
62509;SDS011;48558;48.242;11.654;2022-10-17T14:36:38;1.98;;;1.40;;
62509;SDS011;48558;48.242;11.654;2022-10-17T14:45:44;2.92;;;1.45;;
62509;SDS011;48558;48.242;11.654;2022-10-17T14:54:26;1.80;;;1.30;;
62509;SDS011;48558;48.242;11.654;2022-10-17T14:58:53;4.38;;;1.40;;
62509;SDS011;48558;48.242;11.654;2022-10-17T15:03:06;5.97;;;1.67;;
62509;SDS011;48558;48.242;11.654;2022-10-17T15:07:19;1.27;;;1.27;;
62509;SDS011;48558;48.242;11.654;2022-10-17T15:11:32;1.88;;;1.30;;
62509;SDS011;48558;48.242;11.654;2022-10-17T15:15:44;3.42;;;1.40;;
62509;SDS011;48558;48.242;11.654;2022-10-17T15:20:02;1.40;;;1.30;;
62509;SDS011;48558;48.242;11.654;2022-10-17T15:24:23;3.28;;;1.80;;
62509;SDS011;48558;48.242;11.654;2022-10-17T15:28:35;1.77;;;1.50;;
62509;SDS011;48558;48.242;11.654;2022-10-17T15:32:48;1.83;;;1.38;;
62509;SDS011;48558;48.242;11.654;2022-10-17T15:37:01;7.22;;;1.90;;
62509;SDS011;48558;48.242;11.654;2022-10-17T15:41:15;2.72;;;1.45;;
62509;SDS011;48558;48.242;11.654;2022-10-17T15:45:28;3.50;;;1.60;;
62509;SDS011;48558;48.242;11.654;2022-10-17T15:49:40;1.48;;;1.38;;
62509;SDS011;48558;48.242;11.654;2022-10-17T15:53:52;2.22;;;1.52;;
62509;SDS011;48558;48.242;11.654;2022-10-17T15:58:05;1.60;;;1.50;;
62509;SDS011;48558;48.242;11.654;2022-10-17T16:02:22;2.38;;;1.50;;
62509;SDS011;48558;48.242;11.654;2022-10-17T16:06:34;4.57;;;1.50;;
62509;SDS011;48558;48.242;11.654;2022-10-17T16:10:47;1.60;;;1.50;;
62509;SDS011;48558;48.242;11.654;2022-10-17T16:15:00;1.83;;;1.65;;
62509;SDS011;48558;48.242;11.654;2022-10-17T16:19:12;2.65;;;1.65;;
62509;SDS011;48558;48.242;11.654;2022-10-17T16:23:24;2.22;;;1.40;;
62509;SDS011;48558;48.242;11.654;2022-10-17T16:27:37;3.05;;;1.75;;
62509;SDS011;48558;48.242;11.654;2022-10-17T16:31:49;1.80;;;1.70;;
62509;SDS011;48558;48.242;11.654;2022-10-17T16:36:02;2.13;;;1.92;;
62509;SDS011;48558;48.242;11.654;2022-10-17T16:40:14;2.83;;;1.67;;
62509;SDS011;48558;48.242;11.654;2022-10-17T16:44:27;1.83;;;1.70;;
62509;SDS011;48558;48.242;11.654;2022-10-17T16:48:40;4.90;;;1.50;;
62509;SDS011;48558;48.242;11.654;2022-10-17T16:52:53;1.60;;;1.50;;
62509;SDS011;48558;48.242;11.654;2022-10-17T16:57:06;4.63;;;1.92;;
62509;SDS011;48558;48.242;11.654;2022-10-17T17:01:19;2.92;;;2.25;;
62509;SDS011;48558;48.242;11.654;2022-10-17T17:05:34;4.22;;;2.00;;
62509;SDS011;48558;48.242;11.654;2022-10-17T17:09:46;4.32;;;2.10;;
62509;SDS011;48558;48.242;11.654;2022-10-17T17:13:59;3.70;;;2.17;;
62509;SDS011;48558;48.242;11.654;2022-10-17T17:18:12;2.90;;;2.53;;
62509;SDS011;48558;48.242;11.654;2022-10-17T17:22:30;9.57;;;2.13;;
62509;SDS011;48558;48.242;11.654;2022-10-17T17:26:42;3.55;;;1.83;;
62509;SDS011;48558;48.242;11.654;2022-10-17T17:30:55;2.30;;;1.42;;
62509;SDS011;48558;48.242;11.654;2022-10-17T17:35:08;3.15;;;1.45;;
62509;SDS011;48558;48.242;11.654;2022-10-17T17:39:21;3.38;;;2.03;;
62509;SDS011;48558;48.242;11.654;2022-10-17T17:43:35;1.92;;;1.75;;
62509;SDS011;48558;48.242;11.654;2022-10-17T17:47:48;3.55;;;1.65;;
62509;SDS011;48558;48.242;11.654;2022-10-17T17:52:00;3.38;;;1.45;;
62509;SDS011;48558;48.242;11.654;2022-10-17T17:56:18;2.17;;;1.38;;
62509;SDS011;48558;48.242;11.654;2022-10-17T18:00:33;2.47;;;1.67;;
62509;SDS011;48558;48.242;11.654;2022-10-17T18:04:47;6.22;;;1.58;;
62509;SDS011;48558;48.242;11.654;2022-10-17T18:09:01;3.42;;;1.48;;
62509;SDS011;48558;48.242;11.654;2022-10-17T18:13:15;3.53;;;1.55;;
62509;SDS011;48558;48.242;11.654;2022-10-17T18:17:28;2.28;;;1.63;;
62509;SDS011;48558;48.242;11.654;2022-10-17T18:21:40;12.70;;;1.40;;
62509;SDS011;48558;48.242;11.654;2022-10-17T18:25:56;1.40;;;1.23;;
62509;SDS011;48558;48.242;11.654;2022-10-17T18:30:11;3.50;;;1.20;;
62509;SDS011;48558;48.242;11.654;2022-10-17T18:34:26;1.60;;;1.50;;
62509;SDS011;48558;48.242;11.654;2022-10-17T18:38:40;1.50;;;1.40;;
62509;SDS011;48558;48.242;11.654;2022-10-17T18:42:54;1.65;;;1.55;;
62509;SDS011;48558;48.242;11.654;2022-10-17T18:47:06;1.85;;;1.60;;
62509;SDS011;48558;48.242;11.654;2022-10-17T18:51:20;5.22;;;1.88;;
62509;SDS011;48558;48.242;11.654;2022-10-17T18:55:40;1.80;;;1.65;;
62509;SDS011;48558;48.242;11.654;2022-10-17T18:59:52;1.75;;;1.50;;
62509;SDS011;48558;48.242;11.654;2022-10-17T19:04:05;1.95;;;1.80;;
62509;SDS011;48558;48.242;11.654;2022-10-17T19:08:19;2.17;;;1.38;;
62509;SDS011;48558;48.242;11.654;2022-10-17T19:12:34;5.32;;;1.67;;
62509;SDS011;48558;48.242;11.654;2022-10-17T19:16:47;3.88;;;1.42;;
62509;SDS011;48558;48.242;11.654;2022-10-17T19:21:03;6.32;;;1.80;;
62509;SDS011;48558;48.242;11.654;2022-10-17T19:25:16;1.83;;;1.60;;
62509;SDS011;48558;48.242;11.654;2022-10-17T19:29:29;1.67;;;1.58;;
62509;SDS011;48558;48.242;11.654;2022-10-17T19:33:43;3.28;;;1.70;;
62509;SDS011;48558;48.242;11.654;2022-10-17T19:38:04;3.92;;;1.83;;
62509;SDS011;48558;48.242;11.654;2022-10-17T19:42:26;4.60;;;2.17;;
62509;SDS011;48558;48.242;11.654;2022-10-17T19:46:39;1.52;;;1.42;;
62509;SDS011;48558;48.242;11.654;2022-10-17T19:50:53;8.82;;;1.98;;
62509;SDS011;48558;48.242;11.654;2022-10-17T19:55:06;3.40;;;1.80;;
62509;SDS011;48558;48.242;11.654;2022-10-17T19:59:19;4.50;;;2.15;;
62509;SDS011;48558;48.242;11.654;2022-10-17T20:03:32;2.20;;;2.00;;
62509;SDS011;48558;48.242;11.654;2022-10-17T20:07:44;5.75;;;2.00;;
62509;SDS011;48558;48.242;11.654;2022-10-17T20:11:57;4.93;;;1.90;;
62509;SDS011;48558;48.242;11.654;2022-10-17T20:16:10;4.75;;;2.03;;
62509;SDS011;48558;48.242;11.654;2022-10-17T20:20:24;3.30;;;2.42;;
62509;SDS011;48558;48.242;11.654;2022-10-17T20:24:37;2.00;;;1.85;;
62509;SDS011;48558;48.242;11.654;2022-10-17T20:28:49;2.13;;;1.90;;
62509;SDS011;48558;48.242;11.654;2022-10-17T20:33:02;2.05;;;1.60;;
62509;SDS011;48558;48.242;11.654;2022-10-17T20:37:14;4.05;;;1.80;;
62509;SDS011;48558;48.242;11.654;2022-10-17T20:41:26;2.05;;;1.85;;
62509;SDS011;48558;48.242;11.654;2022-10-17T20:45:40;2.78;;;1.90;;
62509;SDS011;48558;48.242;11.654;2022-10-17T20:50:02;2.03;;;1.58;;
62509;SDS011;48558;48.242;11.654;2022-10-17T20:54:15;4.25;;;1.85;;
62509;SDS011;48558;48.242;11.654;2022-10-17T20:58:27;1.92;;;1.83;;
62509;SDS011;48558;48.242;11.654;2022-10-17T21:02:40;4.32;;;1.60;;
62509;SDS011;48558;48.242;11.654;2022-10-17T21:06:52;4.13;;;1.60;;
62509;SDS011;48558;48.242;11.654;2022-10-17T21:11:08;1.75;;;1.65;;
62509;SDS011;48558;48.242;11.654;2022-10-17T21:15:25;8.43;;;1.80;;
62509;SDS011;48558;48.242;11.654;2022-10-17T21:19:38;3.08;;;1.70;;
62509;SDS011;48558;48.242;11.654;2022-10-17T21:23:51;3.20;;;1.98;;
62509;SDS011;48558;48.242;11.654;2022-10-17T21:28:04;5.47;;;2.17;;
62509;SDS011;48558;48.242;11.654;2022-10-17T21:32:16;2.03;;;1.80;;
62509;SDS011;48558;48.242;11.654;2022-10-17T21:36:49;6.90;;;2.10;;
62509;SDS011;48558;48.242;11.654;2022-10-17T21:41:05;4.82;;;2.08;;
62509;SDS011;48558;48.242;11.654;2022-10-17T21:45:19;2.95;;;2.10;;
62509;SDS011;48558;48.242;11.654;2022-10-17T21:49:36;4.35;;;2.05;;
62509;SDS011;48558;48.242;11.654;2022-10-17T21:53:49;2.30;;;2.10;;
62509;SDS011;48558;48.242;11.654;2022-10-17T21:58:03;2.95;;;2.08;;
62509;SDS011;48558;48.242;11.654;2022-10-17T22:02:15;3.03;;;1.95;;
62509;SDS011;48558;48.242;11.654;2022-10-17T22:06:29;2.17;;;1.90;;
62509;SDS011;48558;48.242;11.654;2022-10-17T22:10:50;3.45;;;1.98;;
62509;SDS011;48558;48.242;11.654;2022-10-17T22:15:03;4.07;;;1.77;;
62509;SDS011;48558;48.242;11.654;2022-10-17T22:19:17;3.13;;;2.13;;
62509;SDS011;48558;48.242;11.654;2022-10-17T22:23:41;2.30;;;2.10;;
62509;SDS011;48558;48.242;11.654;2022-10-17T22:27:56;3.58;;;2.72;;
62509;SDS011;48558;48.242;11.654;2022-10-17T22:32:09;5.20;;;2.17;;
62509;SDS011;48558;48.242;11.654;2022-10-17T22:36:21;2.83;;;2.38;;
62509;SDS011;48558;48.242;11.654;2022-10-17T22:40:36;3.60;;;2.35;;
62509;SDS011;48558;48.242;11.654;2022-10-17T22:44:48;2.33;;;2.13;;
62509;SDS011;48558;48.242;11.654;2022-10-17T22:49:01;2.63;;;2.03;;
62509;SDS011;48558;48.242;11.654;2022-10-17T22:53:14;3.80;;;2.40;;
62509;SDS011;48558;48.242;11.654;2022-10-17T22:57:34;3.92;;;2.22;;
62509;SDS011;48558;48.242;11.654;2022-10-17T23:01:46;2.80;;;2.17;;
62509;SDS011;48558;48.242;11.654;2022-10-17T23:05:58;3.33;;;2.40;;
62509;SDS011;48558;48.242;11.654;2022-10-17T23:10:11;5.65;;;2.25;;
62509;SDS011;48558;48.242;11.654;2022-10-17T23:14:23;3.88;;;2.42;;
62509;SDS011;48558;48.242;11.654;2022-10-17T23:18:36;2.08;;;1.90;;
62509;SDS011;48558;48.242;11.654;2022-10-17T23:22:49;2.85;;;1.85;;
62509;SDS011;48558;48.242;11.654;2022-10-17T23:27:01;2.88;;;2.28;;
62509;SDS011;48558;48.242;11.654;2022-10-17T23:31:17;2.72;;;2.05;;
62509;SDS011;48558;48.242;11.654;2022-10-17T23:35:31;8.02;;;2.30;;
62509;SDS011;48558;48.242;11.654;2022-10-17T23:39:44;6.03;;;2.05;;
62509;SDS011;48558;48.242;11.654;2022-10-17T23:43:57;7.50;;;2.05;;
62509;SDS011;48558;48.242;11.654;2022-10-17T23:48:09;3.42;;;2.40;;
62509;SDS011;48558;48.242;11.654;2022-10-17T23:52:21;5.22;;;2.42;;
62509;SDS011;48558;48.242;11.654;2022-10-17T23:56:34;3.85;;;2.47;;
